»·PEaware :: N4657 KSMX-KSNA

N4657 :: KSMX-KSNA

FLIGHT INFORMATION

Flight Status: Arrived
Operator: Privately registered:
United States
More flights under this callsign
Pilot: Daniel P. (20187)
Aircraft: PILATUS PC-12 EAGLE
(PC12)
More flights by this aircraft type
Origin: KSMX Santa Maria Pub/Capt Hancock
United States
Destination: KSNA John Wayne-Orange Co
United States
More flights between these airports :: More routes between these airports
Route: +RZS VTU V208 SXC SLI
File this flight plan on PilotEdge
Remarks: TEC Route SBAP43
Altitude:
(Current/Filed)
90ft
Speed:
(Current/Filed)
200kts
Departed: 07-Oct-18 09:17 AM
Arrived: 07-Oct-18 10:06 AM
Distance/Time
Traveled:
148nm/0:49
Distance/Time
To Go:
Arrived

Flight Plot

Page will automatically refresh every two minutes.


Map Options




Map Legend


Flown Route
Filed Route
Departure Airport
Arrival Airport
Navaid (VOR, NDB)
Fix

Horizontal Profiles

Position Reports

Time Latitude Longitude Heading Altitude Ground
Speed
07-Oct-18 09:01 34.899856 -120.449753 176 265ft 0kts
07-Oct-18 09:02 34.899856 -120.449753 175 265ft 0kts
07-Oct-18 09:03 34.899856 -120.449753 175 265ft 0kts
07-Oct-18 09:04 34.899856 -120.449753 175 265ft 0kts
07-Oct-18 09:05 34.899856 -120.449753 175 265ft 0kts
07-Oct-18 09:06 34.899856 -120.449753 175 265ft 0kts
07-Oct-18 09:07 34.899856 -120.449753 175 265ft 0kts
07-Oct-18 09:08 34.899856 -120.449753 175 265ft 0kts
07-Oct-18 09:09 34.898382 -120.449939 153 265ft 9kts
07-Oct-18 09:10 34.896197 -120.447374 135 265ft 13kts
07-Oct-18 09:11 34.893712 -120.444802 123 265ft 5kts
07-Oct-18 09:12 34.893587 -120.444738 176 265ft 0kts
07-Oct-18 09:13 34.893587 -120.444738 176 265ft 0kts
07-Oct-18 09:14 34.893587 -120.444738 176 265ft 0kts
07-Oct-18 09:15 34.893587 -120.444738 176 265ft 0kts
07-Oct-18 09:16 34.893587 -120.444738 176 265ft 0kts
07-Oct-18 09:17 34.893239 -120.444958 181 265ft 0kts
07-Oct-18 09:18 34.893135 -120.446174 315 265ft 35kts
07-Oct-18 09:19 34.921232 -120.465728 14 1826ft 167kts
07-Oct-18 09:20 34.924508 -120.414228 111 3634ft 188kts
07-Oct-18 09:21 34.901518 -120.354719 113 5215ft 205kts
07-Oct-18 09:22 34.865570 -120.299573 125 6782ft 214kts
07-Oct-18 09:23 34.827220 -120.242209 124 8003ft 235kts
07-Oct-18 09:24 34.782887 -120.175971 125 8019ft 262kts
07-Oct-18 09:25 34.736457 -120.106840 125 8026ft 266kts
07-Oct-18 09:26 34.690473 -120.038514 125 8028ft 255kts
07-Oct-18 09:27 34.646377 -119.972974 124 8023ft 251kts
07-Oct-18 09:28 34.602246 -119.907516 125 8001ft 251kts
07-Oct-18 09:29 34.561622 -119.857010 133 8011ft 253kts
07-Oct-18 09:30 34.501124 -119.789798 133 7985ft 253kts
07-Oct-18 09:31 34.449069 -119.732384 133 7977ft 253kts
07-Oct-18 09:32 34.396895 -119.674939 133 7977ft 253kts
07-Oct-18 09:33 34.353652 -119.627406 133 7977ft 253kts
07-Oct-18 09:34 34.301404 -119.570068 133 7978ft 253kts
07-Oct-18 09:35 34.243819 -119.507065 132 8967ft 235kts
07-Oct-18 09:36 34.201619 -119.460865 132 8979ft 252kts
07-Oct-18 09:37 34.140302 -119.393966 132 8979ft 255kts
07-Oct-18 09:38 34.096695 -119.346426 132 8979ft 255kts
07-Oct-18 09:39 34.044129 -119.289202 132 8980ft 255kts
07-Oct-18 09:40 33.991505 -119.231955 133 8980ft 256kts
07-Oct-18 09:41 33.938255 -119.174183 134 8980ft 259kts
07-Oct-18 09:42 33.885180 -119.116728 135 8974ft 262kts
07-Oct-18 09:43 33.830901 -119.058076 136 8974ft 263kts
07-Oct-18 09:44 33.778550 -118.997355 127 8976ft 261kts
07-Oct-18 09:45 33.732435 -118.930633 128 8975ft 258kts
07-Oct-18 09:46 33.686719 -118.864802 128 8976ft 255kts
07-Oct-18 09:47 33.641645 -118.800037 128 8976ft 251kts
07-Oct-18 09:48 33.597050 -118.736155 128 8982ft 249kts
07-Oct-18 09:49 33.554488 -118.671389 103 9006ft 245kts
07-Oct-18 09:50 33.556769 -118.598465 82 8294ft 221kts
07-Oct-18 09:51 33.561892 -118.523665 81 7502ft 228kts
07-Oct-18 09:52 33.567531 -118.447603 81 6865ft 231kts
07-Oct-18 09:53 33.575986 -118.371217 74 6069ft 230kts
07-Oct-18 09:54 33.594497 -118.300827 69 5293ft 226kts
07-Oct-18 09:55 33.613898 -118.233868 69 5000ft 203kts
07-Oct-18 09:56 33.631915 -118.171601 69 5003ft 199kts
07-Oct-18 09:57 33.649472 -118.110737 70 5003ft 198kts
07-Oct-18 09:58 33.667386 -118.048335 70 5003ft 198kts
07-Oct-18 09:59 33.684237 -117.989370 69 4997ft 165kts
07-Oct-18 10:00 33.702728 -117.943886 32 4968ft 148kts
07-Oct-18 10:01 33.737161 -117.920704 27 4065ft 143kts
07-Oct-18 10:02 33.771922 -117.898898 26 3206ft 137kts
07-Oct-18 10:03 33.791906 -117.858999 92 2364ft 156kts
07-Oct-18 10:04 33.767023 -117.822689 163 1631ft 142kts
07-Oct-18 10:05 33.732361 -117.832727 208 1137ft 119kts
07-Oct-18 10:06 33.706503 -117.849343 207 616ft 98kts
07-Oct-18 10:07 33.682867 -117.864322 206 130ft 96kts
07-Oct-18 10:08 33.674210 -117.870754 293 60ft 0kts
07-Oct-18 10:09 33.674210 -117.870754 293 60ft 0kts
07-Oct-18 10:10 33.674210 -117.870754 293 60ft 0kts
07-Oct-18 10:11 33.674276 -117.871223 312 60ft 8kts
07-Oct-18 10:12 33.673974 -117.872288 166 60ft 0kts
07-Oct-18 10:13 33.673974 -117.872288 166 60ft 0kts
07-Oct-18 10:14 33.673974 -117.872288 166 60ft 0kts
07-Oct-18 10:15 33.673974 -117.872288 166 60ft 0kts
07-Oct-18 10:16 33.673974 -117.872288 166 60ft 0kts
07-Oct-18 10:17 33.673974 -117.872288 166 60ft 0kts
07-Oct-18 10:18 33.673974 -117.872288 166 60ft 0kts
07-Oct-18 10:19 33.673974 -117.872288 166 60ft 0kts

Navigation Log

Ident Type
1. KSMX Airport
2. RZS Navaid
3. VTU Navaid
4. WEEZL Fix
5. SXC Navaid
6. SLI Navaid
7. KSNA Airport